Buoy 43528

sailwx.info

Track history (hours):
 
Tides and Currents Weather Stations Pressure Air Temp Water Temp Dewpoint Dewpoint Depression Visibility Wind Speed Wind Dir Waves Ship Positions

Drifting buoy 43528

Last reported at 2014-Sep-22 04:00 UTC. Time now 2014-Sep-22 06:17 UTC.
Position N 14°12' W 124°08'.

Water temperature 28.7 ° C

Date/timePositionNaut miles runAvg speedWind from/ knotsBaromVisibWave heightAir tempDewpointWater temp
2014-Sep-22 04:00N 14°12' W 124°08'0 0.0 28.7
2014-Sep-22 03:00N 14°12' W 124°08'2 1.2 28.8
2014-Sep-22 01:00N 14°12' W 124°06'2 0.5 29.0
2014-Sep-21 20:00N 14°13' W 124°03'2 2.2 29.0
2014-Sep-21 19:00N 14°13' W 124°01'0 0.0 28.8
2014-Sep-21 18:00N 14°13' W 124°01'1 1.2 28.6
2014-Sep-21 17:00N 14°13' W 124°00'2 0.5 28.5
2014-Sep-21 13:00N 14°14' W 123°58'0 0.3 28.3
2014-Sep-21 12:00N 14°14' W 123°58'3 1.2 28.4
2014-Sep-21 09:00N 14°13' W 123°55'1 0.2 28.4
2014-Sep-21 06:00N 14°13' W 123°54'0 0.2 28.5
2014-Sep-21 05:00N 14°13' W 123°54'2 0.7 28.6
2014-Sep-21 02:00N 14°13' W 123°52'1 1.2 28.9
2014-Sep-21 01:00N 14°14' W 123°51'1 0.5 29.1
2014-Sep-20 23:00N 14°14' W 123°50'0 0.0 30.5
2014-Sep-20 22:00N 14°14' W 123°50'1 0.5 30.3
2014-Sep-20 20:00N 14°14' W 123°49'2 0.9 29.7
2014-Sep-20 18:00N 14°14' W 123°47'3 3.3 28.6
2014-Sep-20 17:00N 14°13' W 123°44'0 0.0 28.3
2014-Sep-20 15:00N 14°13' W 123°44'1 0.3 28.2
2014-Sep-20 13:00N 14°14' W 123°44'0 0.2 28.2
2014-Sep-20 12:00N 14°14' W 123°44'0 0.3 28.3
2014-Sep-20 11:00N 14°14' W 123°43'1 0.8 28.3
2014-Sep-20 10:00N 14°13' W 123°43'2 1.7 28.3
2014-Sep-20 09:00N 14°13' W 123°41'2 1.9 28.3
2014-Sep-20 08:00N 14°13' W 123°43'2 1.0 28.4
2014-Sep-20 06:00N 14°13' W 123°41'0 0.2 28.4
2014-Sep-20 05:00N 14°13' W 123°41'0 0.2 28.3
2014-Sep-20 04:00N 14°13' W 123°41'1 0.3 28.4
2014-Sep-20 02:00N 14°13' W 123°40'0 0.3 28.4
2014-Sep-20 01:00N 14°13' W 123°41'2 0.9 28.4
2014-Sep-19 23:00N 14°12' W 123°40'0 0.0 28.5
2014-Sep-19 22:00N 14°12' W 123°40'1 1.0 28.4
2014-Sep-19 21:00N 14°11' W 123°40'1 0.5 28.3
2014-Sep-19 19:00N 14°10' W 123°39'1 1.0 28.3
2014-Sep-19 18:00N 14°09' W 123°38'1 0.6 28.3
2014-Sep-19 17:00N 14°09' W 123°39'2 0.5 28.3
2014-Sep-19 13:00N 14°07' W 123°38'0 0.0 28.3
2014-Sep-19 12:00N 14°07' W 123°38'1 1.4 28.3
2014-Sep-19 11:00N 14°06' W 123°37'3 1.4 28.3
2014-Sep-19 09:00N 14°04' W 123°34'1 0.2 28.4
2014-Sep-19 06:00N 14°04' W 123°34'0 0.4 28.6
2014-Sep-19 05:00N 14°04' W 123°33'1 0.6 28.7
2014-Sep-19 03:00N 14°04' W 123°32'1 0.6 29.0
2014-Sep-19 01:00N 14°05' W 123°31'1 0.3 29.6
2014-Sep-18 23:00N 14°05' W 123°30'1 0.3 29.8
2014-Sep-18 21:00N 14°05' W 123°30'1 0.5 29.0
2014-Sep-18 18:00N 14°06' W 123°29'1 0.4 28.4
2014-Sep-18 16:00N 14°07' W 123°28'0 0.2 28.3
2014-Sep-18 14:00N 14°07' W 123°28'0 0.3 28.2
2014-Sep-18 13:00N 14°07' W 123°28'1 0.9 28.3
2014-Sep-18 12:00N 14°08' W 123°28'1 0.7 28.3
2014-Sep-18 10:00N 14°07' W 123°27'2 1.7 28.5
2014-Sep-18 09:00N 14°08' W 123°29'1 0.5 28.5
2014-Sep-18 06:00N 14°07' W 123°28'0 0.1 28.6
2014-Sep-18 04:00N 14°07' W 123°28'1 0.7 28.6
2014-Sep-18 02:00N 14°07' W 123°26'2 0.6 28.7
2014-Sep-17 23:00N 14°07' W 123°25'0 0.0 29.1
2014-Sep-17 22:00N 14°07' W 123°25'2 0.5 29.0
2014-Sep-17 18:00N 14°07' W 123°23'2 1.5 28.7
2014-Sep-17 17:00N 14°08' W 123°24'3 0.7 28.4
2014-Sep-17 13:00N 14°07' W 123°21'3 1.0 28.3
2014-Sep-17 10:00N 14°05' W 123°19'0 0.1 28.4
2014-Sep-17 06:00N 14°05' W 123°18'1 0.7 28.5
2014-Sep-17 05:00N 14°04' W 123°18'4 0.5 28.6
2014-Sep-16 21:00N 14°03' W 123°13'2 0.8 28.9
2014-Sep-16 18:00N 14°03' W 123°11'1 1.4 28.3
2014-Sep-16 17:00N 14°03' W 123°10'2 2.4 28.2
2014-Sep-16 16:00N 14°05' W 123°07'2 0.5 28.1
2014-Sep-16 12:00N 14°06' W 123°06'1 0.5 28.3
2014-Sep-16 10:00N 14°07' W 123°07'1 1.0 28.4
2014-Sep-16 09:00N 14°06' W 123°06'2 0.4 28.4
2014-Sep-16 05:00N 14°08' W 123°06'0 0.1 28.6
2014-Sep-16 03:00N 14°08' W 123°06'2 0.3 28.7
2014-Sep-15 18:00N 14°06' W 123°05'0 0.4 28.2
2014-Sep-15 17:00N 14°06' W 123°05'0 0.0 28.1
2014-Sep-15 16:00N 14°06' W 123°05'3 1.7 28.0
2014-Sep-15 14:00N 14°03' W 123°04'0 0.5 28.0
2014-Sep-15 13:00N 14°03' W 123°04'3 2.7 28.0
2014-Sep-15 12:00N 14°00' W 123°03'4 1.8 28.0
2014-Sep-15 10:00N 13°57' W 123°01'2 0.4 28.1
2014-Sep-15 04:00N 13°57' W 122°59'7 3.3 28.1
2014-Sep-15 02:00N 13°59' W 122°52'2 0.7 28.1
2014-Sep-14 23:00N 14°00' W 122°51'4 1.9 28.3
2014-Sep-14 21:00N 14°03' W 122°48'0 0.1 28.2
2014-Sep-14 19:00N 14°03' W 122°48'0 0.0 28.0
2014-Sep-14 18:00N 14°03' W 122°48'1 0.5 27.9
2014-Sep-14 17:00N 14°04' W 122°48'2 1.6 27.9
2014-Sep-14 16:00N 14°06' W 122°48'3 1.1 27.8
2014-Sep-14 13:00N 14°09' W 122°49'1 0.3 27.8
2014-Sep-14 11:00N 14°09' W 122°48'1 1.4 27.8
2014-Sep-14 10:00N 14°10' W 122°49'0 0.0 27.9
2014-Sep-14 09:00N 14°10' W 122°49'0 0.1 27.9
2014-Sep-14 06:00N 14°10' W 122°49'1 1.3 27.9
2014-Sep-14 05:00N 14°10' W 122°50'1 1.1 28.0
2014-Sep-14 04:00N 14°10' W 122°49'1 0.3 28.0
2014-Sep-14 02:00N 14°10' W 122°50'1 0.6 28.0
2014-Sep-14 01:00N 14°09' W 122°50'1 0.7 28.0
2014-Sep-14 00:00N 14°09' W 122°49'1 0.6 28.1
2014-Sep-13 22:00N 14°08' W 122°48'0 0.0 28.2
2014-Sep-13 21:00N 14°08' W 122°48'3 0.9 28.2
2014-Sep-13 18:00N 14°07' W 122°46'5 4.6 27.8
2014-Sep-13 17:00N 14°07' W 122°41'0 0.0 27.8
2014-Sep-13 14:00N 14°07' W 122°41'4 0.8 27.7
2014-Sep-13 09:00N 14°08' W 122°37'0 0.0 27.8
2014-Sep-13 08:00N 14°08' W 122°37'11 2.8 27.8
2014-Sep-13 04:00N 14°14' W 122°27'0 0.0 27.8
2014-Sep-13 03:00N 14°14' W 122°27'0 0.2 27.7
2014-Sep-13 01:00N 14°15' W 122°27'2 0.6 27.6
2014-Sep-12 22:00N 14°16' W 122°27'0 0.1 28.0
2014-Sep-12 18:00N 14°17' W 122°27'1 1.4 28.0
2014-Sep-12 17:00N 14°17' W 122°29'1 1.3 28.0
2014-Sep-12 16:00N 14°16' W 122°28'0 0.2 28.0
2014-Sep-12 14:00N 14°16' W 122°27'2 1.6 28.0
2014-Sep-12 13:00N 14°16' W 122°29'1 0.6 28.0
2014-Sep-12 11:00N 14°14' W 122°29'2 1.0 28.0
2014-Sep-12 09:00N 14°13' W 122°31'1 0.3 28.0
2014-Sep-12 06:00N 14°13' W 122°32'0 0.0 27.9
2014-Sep-12 05:00N 14°13' W 122°32'   27.8
Track history (hours):
 
Tides and Currents Weather Stations Pressure Air Temp Water Temp Dewpoint Dewpoint Depression Visibility Wind Speed Wind Dir Waves Ship Positions

Drifting buoy 43528

Last reported at 2014-Sep-22 04:00 UTC. Time now 2014-Sep-22 06:17 UTC.
Position N 14°12' W 124°08'.

Water temperature 28.7 ° C

Date/timePositionNaut miles runAvg speedWind from/ knotsBaromVisibWave heightAir tempDewpointWater temp
2014-Sep-22 04:00N 14°12' W 124°08'0 0.0 28.7
2014-Sep-22 03:00N 14°12' W 124°08'2 1.2 28.8
2014-Sep-22 01:00N 14°12' W 124°06'2 0.5 29.0
2014-Sep-21 20:00N 14°13' W 124°03'2 2.2 29.0
2014-Sep-21 19:00N 14°13' W 124°01'0 0.0 28.8
2014-Sep-21 18:00N 14°13' W 124°01'1 1.2 28.6
2014-Sep-21 17:00N 14°13' W 124°00'2 0.5 28.5
2014-Sep-21 13:00N 14°14' W 123°58'0 0.3 28.3
2014-Sep-21 12:00N 14°14' W 123°58'3 1.2 28.4
2014-Sep-21 09:00N 14°13' W 123°55'1 0.2 28.4
2014-Sep-21 06:00N 14°13' W 123°54'0 0.2 28.5
2014-Sep-21 05:00N 14°13' W 123°54'2 0.7 28.6
2014-Sep-21 02:00N 14°13' W 123°52'1 1.2 28.9
2014-Sep-21 01:00N 14°14' W 123°51'1 0.5 29.1
2014-Sep-20 23:00N 14°14' W 123°50'0 0.0 30.5
2014-Sep-20 22:00N 14°14' W 123°50'1 0.5 30.3
2014-Sep-20 20:00N 14°14' W 123°49'2 0.9 29.7
2014-Sep-20 18:00N 14°14' W 123°47'3 3.3 28.6
2014-Sep-20 17:00N 14°13' W 123°44'0 0.0 28.3
2014-Sep-20 15:00N 14°13' W 123°44'1 0.3 28.2
2014-Sep-20 13:00N 14°14' W 123°44'0 0.2 28.2
2014-Sep-20 12:00N 14°14' W 123°44'0 0.3 28.3
2014-Sep-20 11:00N 14°14' W 123°43'1 0.8 28.3
2014-Sep-20 10:00N 14°13' W 123°43'2 1.7 28.3
2014-Sep-20 09:00N 14°13' W 123°41'2 1.9 28.3
2014-Sep-20 08:00N 14°13' W 123°43'2 1.0 28.4
2014-Sep-20 06:00N 14°13' W 123°41'0 0.2 28.4
2014-Sep-20 05:00N 14°13' W 123°41'0 0.2 28.3
2014-Sep-20 04:00N 14°13' W 123°41'1 0.3 28.4
2014-Sep-20 02:00N 14°13' W 123°40'0 0.3 28.4
2014-Sep-20 01:00N 14°13' W 123°41'2 0.9 28.4
2014-Sep-19 23:00N 14°12' W 123°40'0 0.0 28.5
2014-Sep-19 22:00N 14°12' W 123°40'1 1.0 28.4
2014-Sep-19 21:00N 14°11' W 123°40'1 0.5 28.3
2014-Sep-19 19:00N 14°10' W 123°39'1 1.0 28.3
2014-Sep-19 18:00N 14°09' W 123°38'1 0.6 28.3
2014-Sep-19 17:00N 14°09' W 123°39'2 0.5 28.3
2014-Sep-19 13:00N 14°07' W 123°38'0 0.0 28.3
2014-Sep-19 12:00N 14°07' W 123°38'1 1.4 28.3
2014-Sep-19 11:00N 14°06' W 123°37'3 1.4 28.3
2014-Sep-19 09:00N 14°04' W 123°34'1 0.2 28.4
2014-Sep-19 06:00N 14°04' W 123°34'0 0.4 28.6
2014-Sep-19 05:00N 14°04' W 123°33'1 0.6 28.7
2014-Sep-19 03:00N 14°04' W 123°32'1 0.6 29.0
2014-Sep-19 01:00N 14°05' W 123°31'1 0.3 29.6
2014-Sep-18 23:00N 14°05' W 123°30'1 0.3 29.8
2014-Sep-18 21:00N 14°05' W 123°30'1 0.5 29.0
2014-Sep-18 18:00N 14°06' W 123°29'1 0.4 28.4
2014-Sep-18 16:00N 14°07' W 123°28'0 0.2 28.3
2014-Sep-18 14:00N 14°07' W 123°28'0 0.3 28.2
2014-Sep-18 13:00N 14°07' W 123°28'1 0.9 28.3
2014-Sep-18 12:00N 14°08' W 123°28'1 0.7 28.3
2014-Sep-18 10:00N 14°07' W 123°27'2 1.7 28.5
2014-Sep-18 09:00N 14°08' W 123°29'1 0.5 28.5
2014-Sep-18 06:00N 14°07' W 123°28'0 0.1 28.6
2014-Sep-18 04:00N 14°07' W 123°28'1 0.7 28.6
2014-Sep-18 02:00N 14°07' W 123°26'2 0.6 28.7
2014-Sep-17 23:00N 14°07' W 123°25'0 0.0 29.1
2014-Sep-17 22:00N 14°07' W 123°25'2 0.5 29.0
2014-Sep-17 18:00N 14°07' W 123°23'2 1.5 28.7
2014-Sep-17 17:00N 14°08' W 123°24'3 0.7 28.4
2014-Sep-17 13:00N 14°07' W 123°21'3 1.0 28.3
2014-Sep-17 10:00N 14°05' W 123°19'0 0.1 28.4
2014-Sep-17 06:00N 14°05' W 123°18'1 0.7 28.5
2014-Sep-17 05:00N 14°04' W 123°18'4 0.5 28.6
2014-Sep-16 21:00N 14°03' W 123°13'2 0.8 28.9
2014-Sep-16 18:00N 14°03' W 123°11'1 1.4 28.3
2014-Sep-16 17:00N 14°03' W 123°10'2 2.4 28.2
2014-Sep-16 16:00N 14°05' W 123°07'2 0.5 28.1
2014-Sep-16 12:00N 14°06' W 123°06'1 0.5 28.3
2014-Sep-16 10:00N 14°07' W 123°07'1 1.0 28.4
2014-Sep-16 09:00N 14°06' W 123°06'2 0.4 28.4
2014-Sep-16 05:00N 14°08' W 123°06'0 0.1 28.6
2014-Sep-16 03:00N 14°08' W 123°06'2 0.3 28.7
2014-Sep-15 18:00N 14°06' W 123°05'0 0.4 28.2
2014-Sep-15 17:00N 14°06' W 123°05'0 0.0 28.1
2014-Sep-15 16:00N 14°06' W 123°05'3 1.7 28.0
2014-Sep-15 14:00N 14°03' W 123°04'0 0.5 28.0
2014-Sep-15 13:00N 14°03' W 123°04'3 2.7 28.0
2014-Sep-15 12:00N 14°00' W 123°03'4 1.8 28.0
2014-Sep-15 10:00N 13°57' W 123°01'2 0.4 28.1
2014-Sep-15 04:00N 13°57' W 122°59'7 3.3 28.1
2014-Sep-15 02:00N 13°59' W 122°52'2 0.7 28.1
2014-Sep-14 23:00N 14°00' W 122°51'4 1.9 28.3
2014-Sep-14 21:00N 14°03' W 122°48'0 0.1 28.2
2014-Sep-14 19:00N 14°03' W 122°48'0 0.0 28.0
2014-Sep-14 18:00N 14°03' W 122°48'1 0.5 27.9
2014-Sep-14 17:00N 14°04' W 122°48'2 1.6 27.9
2014-Sep-14 16:00N 14°06' W 122°48'3 1.1 27.8
2014-Sep-14 13:00N 14°09' W 122°49'1 0.3 27.8
2014-Sep-14 11:00N 14°09' W 122°48'1 1.4 27.8
2014-Sep-14 10:00N 14°10' W 122°49'0 0.0 27.9
2014-Sep-14 09:00N 14°10' W 122°49'0 0.1 27.9
2014-Sep-14 06:00N 14°10' W 122°49'1 1.3 27.9
2014-Sep-14 05:00N 14°10' W 122°50'1 1.1 28.0
2014-Sep-14 04:00N 14°10' W 122°49'1 0.3 28.0
2014-Sep-14 02:00N 14°10' W 122°50'1 0.6 28.0
2014-Sep-14 01:00N 14°09' W 122°50'1 0.7 28.0
2014-Sep-14 00:00N 14°09' W 122°49'1 0.6 28.1
2014-Sep-13 22:00N 14°08' W 122°48'0 0.0 28.2
2014-Sep-13 21:00N 14°08' W 122°48'3 0.9 28.2
2014-Sep-13 18:00N 14°07' W 122°46'5 4.6 27.8
2014-Sep-13 17:00N 14°07' W 122°41'0 0.0 27.8
2014-Sep-13 14:00N 14°07' W 122°41'4 0.8 27.7
2014-Sep-13 09:00N 14°08' W 122°37'0 0.0 27.8
2014-Sep-13 08:00N 14°08' W 122°37'11 2.8 27.8
2014-Sep-13 04:00N 14°14' W 122°27'0 0.0 27.8
2014-Sep-13 03:00N 14°14' W 122°27'0 0.2 27.7
2014-Sep-13 01:00N 14°15' W 122°27'2 0.6 27.6
2014-Sep-12 22:00N 14°16' W 122°27'0 0.1 28.0
2014-Sep-12 18:00N 14°17' W 122°27'1 1.4 28.0
2014-Sep-12 17:00N 14°17' W 122°29'1 1.3 28.0
2014-Sep-12 16:00N 14°16' W 122°28'0 0.2 28.0
2014-Sep-12 14:00N 14°16' W 122°27'2 1.6 28.0
2014-Sep-12 13:00N 14°16' W 122°29'1 0.6 28.0
2014-Sep-12 11:00N 14°14' W 122°29'2 1.0 28.0
2014-Sep-12 09:00N 14°13' W 122°31'1 0.3 28.0
2014-Sep-12 06:00N 14°13' W 122°32'0 0.0 27.9
2014-Sep-12 05:00N 14°13' W 122°32'   27.8

Dump ship's entire track history